createdAt,value
2018-08-17T00:00:17.353Z,61.70
2018-08-17T00:02:44.796Z,61.30
2018-08-17T00:05:12.299Z,61.90
2018-08-17T00:07:39.799Z,62.20
2018-08-17T00:10:07.266Z,62.60
2018-08-17T00:12:34.734Z,62.40
2018-08-17T00:15:02.236Z,61.90
2018-08-17T00:17:29.646Z,62.30
2018-08-17T00:19:57.059Z,62.00
2018-08-17T00:22:24.499Z,62.20
2018-08-17T00:24:51.899Z,61.70
2018-08-17T00:27:19.274Z,61.60
2018-08-17T00:29:46.799Z,61.20
2018-08-17T00:32:14.249Z,62.10
2018-08-17T00:34:41.698Z,62.50
2018-08-17T00:37:09.806Z,62.20
2018-08-17T00:39:37.713Z,62.00
2018-08-17T00:42:05.210Z,61.40
2018-08-17T00:44:32.617Z,61.70
2018-08-17T00:47:00.065Z,62.00
2018-08-17T00:49:27.542Z,63.00
2018-08-17T00:51:54.994Z,64.10
2018-08-17T00:54:22.401Z,64.60
2018-08-17T00:56:49.853Z,65.10
2018-08-17T00:59:17.292Z,64.80
2018-08-17T01:01:44.857Z,65.10
2018-08-17T01:04:12.322Z,65.40
2018-08-17T01:06:39.833Z,64.20
2018-08-17T01:09:08.418Z,65.00
2018-08-17T01:11:35.811Z,65.00
2018-08-17T01:14:03.304Z,64.70
2018-08-17T01:16:30.784Z,65.00
2018-08-17T01:18:58.240Z,65.10
2018-08-17T01:21:25.664Z,65.80
2018-08-17T01:23:53.118Z,65.80
2018-08-17T01:26:20.534Z,65.90
2018-08-17T01:28:47.878Z,65.40
2018-08-17T01:31:15.341Z,65.40
2018-08-17T01:33:42.912Z,67.50
2018-08-17T01:36:10.365Z,67.70
2018-08-17T01:38:37.820Z,68.50
2018-08-17T01:41:05.404Z,70.80
2018-08-17T01:43:32.848Z,71.50
2018-08-17T01:46:00.319Z,71.20
2018-08-17T01:48:27.691Z,70.20
2018-08-17T01:50:55.176Z,70.30
2018-08-17T01:53:22.572Z,70.90
2018-08-17T01:55:50.015Z,70.30
2018-08-17T01:58:17.541Z,71.50
2018-08-17T02:00:45.030Z,71.20
2018-08-17T02:03:12.592Z,71.10
2018-08-17T02:05:40.009Z,71.50
2018-08-17T02:08:07.514Z,72.40
2018-08-17T02:10:35.074Z,73.40
2018-08-17T02:13:02.436Z,73.50
2018-08-17T02:15:29.788Z,73.70
2018-08-17T02:17:57.332Z,74.70
2018-08-17T02:20:24.816Z,74.70
2018-08-17T02:22:52.336Z,75.30
2018-08-17T02:25:19.779Z,74.70
2018-08-17T02:27:47.273Z,74.30
2018-08-17T02:30:14.824Z,73.80
2018-08-17T02:32:42.260Z,73.60
2018-08-17T02:35:09.718Z,73.50
2018-08-17T02:37:37.212Z,74.20
2018-08-17T02:40:05.230Z,75.30
2018-08-17T02:42:32.814Z,75.90
2018-08-17T02:45:00.184Z,76.00
2018-08-17T02:47:27.614Z,75.70
2018-08-17T02:49:55.150Z,76.10
2018-08-17T02:52:22.606Z,75.80
2018-08-17T02:54:50.093Z,75.50
2018-08-17T02:57:17.631Z,75.80
2018-08-17T02:59:45.005Z,75.50
2018-08-17T03:02:12.413Z,75.60
2018-08-17T03:04:39.844Z,75.80
2018-08-17T03:07:07.396Z,76.00
2018-08-17T03:09:34.776Z,76.90
2018-08-17T03:12:08.495Z,76.80
2018-08-17T03:14:35.885Z,76.90
2018-08-17T03:17:03.319Z,77.20
2018-08-17T03:19:30.911Z,77.00
2018-08-17T03:21:58.339Z,77.50
2018-08-17T03:24:25.822Z,78.70
2018-08-17T03:26:53.323Z,78.30
2018-08-17T03:29:20.868Z,79.60
2018-08-17T03:31:48.247Z,80.50
2018-08-17T03:34:15.669Z,81.30
2018-08-17T03:36:43.110Z,81.90
2018-08-17T03:39:10.924Z,82.20
2018-08-17T03:41:38.572Z,83.00
2018-08-17T03:44:06.257Z,82.70
2018-08-17T03:46:33.813Z,82.80
2018-08-17T03:49:01.234Z,82.50
2018-08-17T03:51:28.752Z,82.20
2018-08-17T03:53:56.141Z,81.90
2018-08-17T03:56:23.656Z,81.20
2018-08-17T03:58:51.082Z,80.90
2018-08-17T04:01:18.408Z,81.20
2018-08-17T04:03:45.819Z,80.80
2018-08-17T04:06:13.220Z,79.70
2018-08-17T04:08:40.660Z,79.40
2018-08-17T04:11:08.124Z,79.70
2018-08-17T04:13:35.521Z,80.50
2018-08-17T04:16:03.027Z,81.00
2018-08-17T04:18:30.514Z,81.40
2018-08-17T04:20:57.872Z,81.70
2018-08-17T04:23:25.276Z,81.90
2018-08-17T04:25:52.860Z,82.20
2018-08-17T04:28:20.326Z,82.00
2018-08-17T04:30:47.839Z,82.40
2018-08-17T04:33:15.307Z,82.80
2018-08-17T04:35:42.754Z,81.80
2018-08-17T04:38:10.186Z,81.50
2018-08-17T04:40:37.632Z,80.50
2018-08-17T04:43:05.098Z,79.80
2018-08-17T04:45:32.609Z,80.10
2018-08-17T04:48:00.027Z,79.90
2018-08-17T04:50:27.403Z,80.70
2018-08-17T04:52:54.800Z,81.30
2018-08-17T04:55:22.394Z,81.90
2018-08-17T04:57:49.905Z,81.30
2018-08-17T05:00:17.289Z,81.30
2018-08-17T05:02:44.701Z,80.60
2018-08-17T05:05:12.067Z,79.60
2018-08-17T05:07:39.583Z,79.70
2018-08-17T05:10:07.724Z,79.50
2018-08-17T05:12:35.151Z,80.10
2018-08-17T05:15:02.688Z,80.20
2018-08-17T05:17:30.129Z,80.90
2018-08-17T05:19:57.487Z,81.50
2018-08-17T05:22:24.921Z,82.10
2018-08-17T05:24:52.412Z,82.20
2018-08-17T05:27:19.875Z,82.40
2018-08-17T05:29:47.267Z,82.60
2018-08-17T05:32:14.762Z,82.70
2018-08-17T05:34:42.205Z,82.70
2018-08-17T05:37:09.617Z,82.30
2018-08-17T05:39:37.149Z,82.40
2018-08-17T05:42:04.709Z,83.20
2018-08-17T05:44:32.135Z,82.80
2018-08-17T05:46:59.609Z,82.00
2018-08-17T05:49:27.021Z,81.50
2018-08-17T05:51:54.526Z,81.50
2018-08-17T05:54:22.091Z,82.30
2018-08-17T05:56:49.543Z,82.10
2018-08-17T05:59:16.874Z,81.80
2018-08-17T06:01:44.460Z,81.40
2018-08-17T06:04:11.966Z,80.90
2018-08-17T06:06:39.528Z,80.60
2018-08-17T06:09:08.118Z,81.20
2018-08-17T06:11:37.135Z,80.00
2018-08-17T06:14:05.235Z,79.70
2018-08-17T06:16:32.806Z,80.00
2018-08-17T06:19:03.186Z,80.00
2018-08-17T06:21:31.278Z,79.70
2018-08-17T06:23:58.782Z,79.30
2018-08-17T06:26:27.354Z,78.70
2018-08-17T06:31:37.483Z,79.30
2018-08-17T06:34:05.202Z,77.90
2018-08-17T06:36:34.701Z,77.30
2018-08-17T06:39:04.509Z,75.20
2018-08-17T06:41:32.010Z,74.90
2018-08-17T06:44:00.273Z,75.60
2018-08-17T06:46:34.983Z,75.40
2018-08-17T06:49:02.950Z,74.90
2018-08-17T06:51:37.375Z,74.90
2018-08-17T06:54:11.197Z,74.20
2018-08-17T06:56:44.621Z,73.70
2018-08-17T06:59:12.764Z,72.90
2018-08-17T07:01:40.324Z,72.60
2018-08-17T07:04:08.736Z,73.10
2018-08-17T07:06:40.019Z,73.10
2018-08-17T07:09:08.569Z,73.30
2018-08-17T07:11:49.614Z,73.70
2018-08-17T07:14:17.278Z,73.40
2018-08-17T07:16:45.275Z,71.10
2018-08-17T07:19:12.576Z,69.70
2018-08-17T07:21:40.301Z,70.60
2018-08-17T07:24:07.617Z,71.30
2018-08-17T07:26:35.079Z,71.40
2018-08-17T07:29:02.556Z,70.90
2018-08-17T07:31:29.883Z,70.40
2018-08-17T07:33:57.242Z,70.20
2018-08-17T07:36:24.708Z,69.00
2018-08-17T07:38:52.142Z,66.40
2018-08-17T07:41:19.601Z,66.10
2018-08-17T07:43:47.580Z,66.70
2018-08-17T07:46:15.377Z,65.60
2018-08-17T07:48:42.836Z,66.00
2018-08-17T07:51:10.205Z,64.70
2018-08-17T07:53:37.747Z,64.90
2018-08-17T07:56:05.520Z,64.70
2018-08-17T07:58:33.749Z,65.30
2018-08-17T08:01:01.769Z,64.90
2018-08-17T08:03:29.486Z,64.30
2018-08-17T08:06:16.089Z,62.90
2018-08-17T08:08:46.164Z,61.90
2018-08-17T08:11:14.047Z,62.10
2018-08-17T08:13:42.084Z,62.90
2018-08-17T08:16:09.536Z,63.50
2018-08-17T08:18:37.078Z,63.60
2018-08-17T08:21:04.803Z,62.50
2018-08-17T08:23:32.324Z,62.10
2018-08-17T08:25:59.821Z,61.00
2018-08-17T08:28:27.305Z,61.20
2018-08-17T08:30:54.679Z,61.30
2018-08-17T08:33:22.318Z,61.30
2018-08-17T08:35:50.137Z,59.90
2018-08-17T08:38:18.637Z,60.50
2018-08-17T08:40:46.681Z,60.20
2018-08-17T08:43:15.080Z,59.80
2018-08-17T08:45:42.929Z,59.20
2018-08-17T08:48:10.873Z,58.60
2018-08-17T08:50:38.700Z,57.40
2018-08-17T08:53:06.655Z,55.70
2018-08-17T08:55:34.103Z,57.20
2018-08-17T08:58:01.651Z,57.30
2018-08-17T09:00:29.275Z,57.20
2018-08-17T09:02:56.792Z,56.30
2018-08-17T09:05:24.259Z,55.50
2018-08-17T09:07:51.845Z,56.90
2018-08-17T09:10:19.375Z,56.20
2018-08-17T09:12:47.122Z,56.20
2018-08-17T09:15:14.619Z,56.20
2018-08-17T09:17:43.017Z,56.10
2018-08-17T09:20:12.968Z,55.90
2018-08-17T09:22:40.678Z,55.40
2018-08-17T09:25:08.371Z,54.70
2018-08-17T09:27:35.761Z,53.80
2018-08-17T09:30:04.043Z,53.00
2018-08-17T09:32:31.738Z,53.30
2018-08-17T09:34:59.214Z,53.70
2018-08-17T09:37:26.695Z,53.50
2018-08-17T09:39:54.118Z,52.20
2018-08-17T09:42:22.025Z,51.00
2018-08-17T09:44:49.491Z,50.60
2018-08-17T09:47:17.041Z,48.90
2018-08-17T09:49:44.678Z,48.50
2018-08-17T09:52:12.257Z,48.50
2018-08-17T09:54:39.663Z,47.40
2018-08-17T09:57:07.428Z,47.40
2018-08-17T09:59:34.898Z,45.90
2018-08-17T10:02:09.367Z,46.00
2018-08-17T10:04:44.544Z,45.90
2018-08-17T10:07:18.494Z,45.90
2018-08-17T10:09:51.854Z,45.70
2018-08-17T10:12:19.360Z,45.60
2018-08-17T10:14:46.935Z,45.30
2018-08-17T10:17:14.917Z,44.50
2018-08-17T10:19:42.423Z,44.80
2018-08-17T10:22:10.010Z,45.30
2018-08-17T10:24:37.471Z,45.00
2018-08-17T10:27:04.975Z,44.90
2018-08-17T10:29:32.444Z,45.00
2018-08-17T10:31:59.866Z,44.70
2018-08-17T10:34:27.389Z,44.80
2018-08-17T10:36:54.881Z,44.50
2018-08-17T10:39:38.698Z,44.00
2018-08-17T10:42:06.353Z,44.00
2018-08-17T10:44:34.000Z,44.20
2018-08-17T10:47:03.471Z,44.10
2018-08-17T10:49:32.926Z,43.80
2018-08-17T10:52:01.234Z,43.80
2018-08-17T10:54:29.932Z,43.00
2018-08-17T10:56:58.084Z,42.70
2018-08-17T10:59:26.640Z,41.90
2018-08-17T11:01:54.260Z,41.20
2018-08-17T11:04:21.776Z,41.50
2018-08-17T11:06:59.050Z,41.30
2018-08-17T11:09:33.401Z,41.00
2018-08-17T11:12:00.860Z,41.30
2018-08-17T11:14:28.469Z,40.60
2018-08-17T11:16:57.392Z,40.80
2018-08-17T11:19:24.764Z,40.40
2018-08-17T11:21:52.295Z,40.70
2018-08-17T11:24:19.663Z,40.70
2018-08-17T11:26:47.050Z,39.90
2018-08-17T11:29:14.767Z,39.90
2018-08-17T11:31:42.211Z,39.80
2018-08-17T11:34:11.559Z,38.80
2018-08-17T11:36:39.516Z,38.90
2018-08-17T11:39:07.381Z,39.00
2018-08-17T11:41:35.551Z,38.90
2018-08-17T11:44:06.944Z,38.20
2018-08-17T11:46:34.540Z,37.90
2018-08-17T11:49:02.108Z,38.20
2018-08-17T11:51:29.628Z,37.60
2018-08-17T11:53:57.204Z,38.80
2018-08-17T11:56:24.639Z,37.00
2018-08-17T11:58:52.234Z,37.10
2018-08-17T12:01:30.070Z,37.20
2018-08-17T12:03:58.280Z,37.30
2018-08-17T12:06:25.983Z,37.20
2018-08-17T12:08:53.977Z,37.80
2018-08-17T12:11:21.579Z,38.50
2018-08-17T12:13:48.958Z,39.30
2018-08-17T12:16:16.475Z,38.70
2018-08-17T12:18:44.118Z,39.20
2018-08-17T12:21:11.564Z,38.60
2018-08-17T12:23:39.038Z,39.80
2018-08-17T12:26:06.859Z,39.80
2018-08-17T12:28:34.395Z,40.30
2018-08-17T12:31:02.163Z,39.60
2018-08-17T12:33:29.685Z,39.40
2018-08-17T12:35:57.191Z,38.60
2018-08-17T12:38:24.949Z,38.70
2018-08-17T12:40:56.018Z,38.40
2018-08-17T12:43:31.981Z,38.60
2018-08-17T12:46:02.623Z,38.00
2018-08-17T12:48:30.500Z,38.00
2018-08-17T12:51:03.735Z,37.00
2018-08-17T12:53:31.306Z,37.70
2018-08-17T12:55:59.481Z,35.50
2018-08-17T12:58:39.878Z,35.80
2018-08-17T13:01:07.451Z,35.40
2018-08-17T13:03:35.465Z,34.90
2018-08-17T13:06:02.963Z,34.30
2018-08-17T13:08:32.801Z,33.80
2018-08-17T13:11:00.817Z,33.50
2018-08-17T13:13:28.414Z,33.60
2018-08-17T13:16:14.528Z,32.10
2018-08-17T13:18:42.137Z,32.40
2018-08-17T13:21:09.706Z,33.20
2018-08-17T13:23:37.417Z,32.60
2018-08-17T13:26:05.093Z,32.80
2018-08-17T13:28:32.674Z,32.70
2018-08-17T13:31:00.173Z,33.10
2018-08-17T13:33:27.933Z,33.30
2018-08-17T13:35:55.498Z,33.60
2018-08-17T13:38:23.047Z,33.70
2018-08-17T13:40:50.568Z,34.60
2018-08-17T13:43:18.074Z,34.80
2018-08-17T13:45:45.589Z,35.00
2018-08-17T13:48:13.213Z,35.40
2018-08-17T13:50:40.837Z,35.30
2018-08-17T13:53:08.358Z,36.10
2018-08-17T13:55:35.929Z,35.80
2018-08-17T13:58:04.496Z,35.40
2018-08-17T14:00:32.035Z,35.30
2018-08-17T14:02:59.434Z,35.30
2018-08-17T14:05:27.139Z,35.00
2018-08-17T14:07:54.692Z,35.50
2018-08-17T14:10:22.162Z,35.50
2018-08-17T14:12:49.627Z,35.50
2018-08-17T14:15:17.034Z,35.10
2018-08-17T14:17:44.434Z,36.10
2018-08-17T14:20:14.861Z,36.60
2018-08-17T14:22:47.215Z,37.00
2018-08-17T14:25:15.576Z,37.70
2018-08-17T14:27:43.040Z,37.40
2018-08-17T14:30:18.691Z,37.20
2018-08-17T14:32:50.811Z,37.40
2018-08-17T14:35:18.379Z,36.90
2018-08-17T14:37:46.487Z,37.00
2018-08-17T14:40:14.817Z,36.90
2018-08-17T14:42:42.530Z,38.70
2018-08-17T14:45:10.658Z,39.40
2018-08-17T14:47:40.208Z,39.20
2018-08-17T14:53:10.880Z,39.10
2018-08-17T14:55:38.556Z,39.90
2018-08-17T14:58:06.322Z,40.40
2018-08-17T15:00:33.922Z,41.10
2018-08-17T15:03:05.840Z,41.80
2018-08-17T15:05:33.436Z,42.70
2018-08-17T15:08:01.009Z,43.00
2018-08-17T15:10:47.413Z,42.60
2018-08-17T15:13:15.678Z,42.90
2018-08-17T15:15:54.341Z,43.80
2018-08-17T15:18:23.845Z,43.80
2018-08-17T15:20:51.442Z,44.50
2018-08-17T15:23:19.742Z,45.10
2018-08-17T15:25:56.063Z,45.50
2018-08-17T15:28:23.467Z,45.70
2018-08-17T15:30:50.974Z,46.30
2018-08-17T15:33:18.434Z,47.00
2018-08-17T15:35:45.886Z,47.20
2018-08-17T15:38:13.401Z,47.40
2018-08-17T15:40:40.909Z,47.70
2018-08-17T15:43:14.044Z,48.20
2018-08-17T15:45:41.488Z,48.50
2018-08-17T15:48:09.068Z,48.90
2018-08-17T15:50:36.547Z,48.90
2018-08-17T15:53:04.110Z,49.10
2018-08-17T15:55:33.079Z,50.00
2018-08-17T15:58:00.561Z,48.40
2018-08-17T16:00:28.195Z,49.10
2018-08-17T16:02:55.587Z,49.10
2018-08-17T16:05:23.035Z,48.40
2018-08-17T16:07:50.454Z,50.20
2018-08-17T16:10:18.040Z,52.50
2018-08-17T16:12:45.676Z,54.40
2018-08-17T16:15:13.255Z,55.30
2018-08-17T16:17:40.722Z,57.20
2018-08-17T16:20:09.617Z,58.80
2018-08-17T16:22:37.082Z,60.10
2018-08-17T16:25:05.059Z,62.20
2018-08-17T16:27:32.634Z,64.80
2018-08-17T16:30:00.112Z,64.00
2018-08-17T16:32:28.627Z,65.10
2018-08-17T16:34:56.028Z,64.90
2018-08-17T16:37:23.532Z,65.30
2018-08-17T16:39:54.011Z,65.10
2018-08-17T16:42:27.062Z,65.20
2018-08-17T16:44:55.018Z,63.40
2018-08-17T16:47:22.460Z,62.90
2018-08-17T16:49:49.991Z,64.50
2018-08-17T16:52:17.487Z,65.20
2018-08-17T16:54:45.017Z,64.40
2018-08-17T16:57:12.501Z,61.20
2018-08-17T16:59:39.936Z,61.70
2018-08-17T17:02:08.844Z,60.70
2018-08-17T17:04:39.457Z,59.60
2018-08-17T17:07:07.067Z,58.40
2018-08-17T17:09:34.515Z,57.90
2018-08-17T17:12:02.095Z,58.20
2018-08-17T17:14:29.678Z,58.90
2018-08-17T17:16:58.260Z,61.00
2018-08-17T17:19:25.641Z,61.30
2018-08-17T17:21:53.054Z,61.10
2018-08-17T17:24:20.717Z,58.40
2018-08-17T17:26:49.776Z,56.60
2018-08-17T17:29:17.258Z,58.50
2018-08-17T17:31:49.388Z,60.40
2018-08-17T17:34:16.720Z,64.40
2018-08-17T17:36:44.153Z,65.00
2018-08-17T17:39:12.933Z,64.50
2018-08-17T17:41:40.508Z,64.10
2018-08-17T17:44:08.174Z,62.60
2018-08-17T17:46:35.784Z,60.20
2018-08-17T17:49:03.334Z,58.60
2018-08-17T17:51:31.566Z,60.00
2018-08-17T17:53:58.926Z,63.00
2018-08-17T17:56:26.456Z,64.40
2018-08-17T17:58:59.668Z,65.50
2018-08-17T18:01:28.623Z,68.90
2018-08-17T18:03:56.123Z,69.30
2018-08-17T18:06:23.594Z,68.80
2018-08-17T18:08:51.095Z,72.70
2018-08-17T18:11:18.606Z,74.40
2018-08-17T18:13:46.154Z,74.40
2018-08-17T18:16:13.720Z,73.30
2018-08-17T18:18:41.371Z,75.10
2018-08-17T18:21:08.893Z,75.60
2018-08-17T18:23:36.341Z,77.70
2018-08-17T18:26:08.985Z,78.80
2018-08-17T18:28:36.443Z,76.70
2018-08-17T18:31:05.229Z,77.10
2018-08-17T18:33:32.666Z,77.80
2018-08-17T18:36:00.241Z,77.20
2018-08-17T18:38:27.696Z,74.60
2018-08-17T18:40:55.175Z,76.00
2018-08-17T18:43:22.658Z,77.00
2018-08-17T18:45:50.253Z,77.70
2018-08-17T18:48:17.992Z,78.00
2018-08-17T18:50:45.385Z,80.10
2018-08-17T18:53:12.838Z,80.40
2018-08-17T18:55:40.270Z,81.30
2018-08-17T18:58:07.857Z,83.40
2018-08-17T19:00:35.465Z,84.30
2018-08-17T19:03:03.048Z,83.20
2018-08-17T19:05:30.587Z,84.10
2018-08-17T19:07:58.018Z,82.40
2018-08-17T19:10:25.513Z,79.80
2018-08-17T19:12:53.028Z,81.20
2018-08-17T19:15:20.578Z,81.40
2018-08-17T19:17:48.048Z,82.50
2018-08-17T19:20:15.486Z,82.40
2018-08-17T19:22:44.379Z,82.20
2018-08-17T19:25:13.527Z,83.70
2018-08-17T19:27:41.575Z,84.40
2018-08-17T19:30:23.843Z,84.40
2018-08-17T19:32:53.067Z,84.60
2018-08-17T19:35:20.690Z,86.30
2018-08-17T19:37:48.992Z,85.30
2018-08-17T19:40:23.255Z,84.00
2018-08-17T19:42:51.380Z,84.30
2018-08-17T19:45:19.924Z,84.40
2018-08-17T19:47:47.420Z,84.60
2018-08-17T19:50:14.807Z,85.00
2018-08-17T19:52:42.572Z,84.80
2018-08-17T19:55:20.001Z,84.70
2018-08-17T19:57:47.612Z,88.00
2018-08-17T20:00:15.216Z,89.70
2018-08-17T20:02:42.629Z,88.90
2018-08-17T20:05:10.614Z,89.80
2018-08-17T20:07:38.817Z,86.80
2018-08-17T20:10:07.630Z,85.60
2018-08-17T20:12:35.084Z,87.10
2018-08-17T20:15:05.611Z,85.80
2018-08-17T20:17:49.587Z,84.00
2018-08-17T20:20:20.871Z,82.60
2018-08-17T20:22:49.391Z,86.80
2018-08-17T20:25:17.574Z,87.10
2018-08-17T20:27:45.623Z,86.30
2018-08-17T20:30:19.686Z,86.00
2018-08-17T20:32:47.182Z,85.80
2018-08-17T20:35:15.468Z,85.20
2018-08-17T20:37:55.163Z,84.40
2018-08-17T20:40:22.647Z,84.10
2018-08-17T20:42:51.576Z,82.50
2018-08-17T20:45:22.227Z,84.40
2018-08-17T20:47:49.708Z,83.80
2018-08-17T20:50:18.715Z,83.70
2018-08-17T20:52:57.685Z,84.90
2018-08-17T20:55:25.171Z,84.30
2018-08-17T20:57:53.794Z,84.20
2018-08-17T21:00:22.437Z,85.90
2018-08-17T21:02:50.294Z,86.30
2018-08-17T21:05:17.892Z,87.10
2018-08-17T21:07:50.149Z,84.80
2018-08-17T21:10:18.955Z,84.60
2018-08-17T21:12:47.253Z,84.20
2018-08-17T21:15:16.361Z,86.20
2018-08-17T21:17:44.046Z,86.20
2018-08-17T21:20:11.662Z,85.40
2018-08-17T21:22:39.234Z,86.10
2018-08-17T21:25:07.528Z,85.00
2018-08-17T21:27:35.058Z,85.40
2018-08-17T21:30:03.163Z,85.30
2018-08-17T21:32:32.985Z,86.20
2018-08-17T21:35:00.671Z,85.00
2018-08-17T21:37:28.142Z,85.80
2018-08-17T21:39:55.763Z,86.00
2018-08-17T21:42:23.354Z,85.50
2018-08-17T21:44:50.859Z,84.50
2018-08-17T21:47:18.413Z,86.50
2018-08-17T21:49:45.933Z,88.30
2018-08-17T21:52:18.968Z,88.10
2018-08-17T21:54:46.490Z,85.70
2018-08-17T21:57:14.001Z,86.10
2018-08-17T21:59:47.167Z,86.70
2018-08-17T22:02:14.865Z,87.80
2018-08-17T22:04:42.433Z,87.90
2018-08-17T22:07:15.600Z,88.10
2018-08-17T22:09:43.151Z,86.50
2018-08-17T22:12:11.347Z,87.00
2018-08-17T22:14:39.041Z,87.40
2018-08-17T22:17:11.118Z,88.00
2018-08-17T22:19:40.310Z,87.20
2018-08-17T22:22:09.870Z,86.60
2018-08-17T22:24:49.019Z,87.80
2018-08-17T22:27:17.883Z,89.10
2018-08-17T22:29:47.699Z,89.00
2018-08-17T22:32:15.373Z,86.90
2018-08-17T22:34:44.185Z,87.70
2018-08-17T22:37:11.838Z,86.50
2018-08-17T22:39:39.310Z,86.90
2018-08-17T22:42:07.019Z,87.10
2018-08-17T22:44:34.540Z,86.30
2018-08-17T22:47:19.567Z,87.60
2018-08-17T22:49:47.804Z,86.50
2018-08-17T22:52:15.307Z,87.00
2018-08-17T22:54:48.349Z,86.30
2018-08-17T22:57:16.333Z,86.00
2018-08-17T22:59:43.775Z,86.90
2018-08-17T23:02:11.350Z,89.00
2018-08-17T23:04:38.959Z,88.10
2018-08-17T23:07:06.360Z,88.00
2018-08-17T23:09:33.839Z,87.80
2018-08-17T23:12:01.349Z,87.20
2018-08-17T23:14:28.907Z,87.20
2018-08-17T23:16:56.398Z,89.30
2018-08-17T23:19:23.789Z,90.00
2018-08-17T23:21:51.215Z,89.80
2018-08-17T23:24:18.745Z,87.90
2018-08-17T23:26:46.085Z,88.30
2018-08-17T23:29:13.582Z,88.10
2018-08-17T23:31:41.062Z,89.40
2018-08-17T23:34:08.525Z,89.80
2018-08-17T23:36:35.890Z,89.10
2018-08-17T23:39:04.879Z,88.70
2018-08-17T23:41:32.318Z,89.60
2018-08-17T23:43:59.725Z,89.40
2018-08-17T23:46:27.223Z,88.70
2018-08-17T23:48:54.557Z,88.50
2018-08-17T23:51:21.958Z,89.90
2018-08-17T23:53:49.364Z,89.70
2018-08-17T23:56:16.819Z,88.70
2018-08-17T23:58:44.269Z,88.30
